Austin (LCRA Redbud)'s Hourly Summary for Sunday, March 19, 2017
Hour Temp
(f)
RH
(%)
Solar Rad.
(MJ/m2)
Rainfall
(in)
Wind
(mph)
3/19/2017 12:00 AM 72 77 0 0 2.28
3/19/2017 1:00 AM 70 81 0 0 3.1
3/19/2017 2:00 AM 69 84 0 0 2.25
3/19/2017 3:00 AM 67 87 0 0 1.58
3/19/2017 4:00 AM 66 89 0 0 0.78
3/19/2017 5:00 AM 65 91 0 0 1.02
3/19/2017 6:00 AM 66 88 0 0 2.6
3/19/2017 7:00 AM 66 87 0 0 1.5
3/19/2017 8:00 AM 67 83 0.01 0 2.28
3/19/2017 9:00 AM 68 81 0.22 0 2.05
3/19/2017 10:00 AM 69 76 0.61 0 2.64
3/19/2017 11:00 AM 70 65 1.14 0 3.35
3/19/2017 12:00 PM 75 56 2.5 0 3.66
3/19/2017 1:00 PM 77 54 2.88 0 4.81
3/19/2017 2:00 PM 79 49 3.14 0 4.74
3/19/2017 3:00 PM 80 46 3.08 0 5.06
3/19/2017 4:00 PM 82 44 2.82 0 5.19
3/19/2017 5:00 PM 83 41 2.26 0 4.93
3/19/2017 6:00 PM 84 41 1.56 0 4.2
3/19/2017 7:00 PM 83 42 0.79 0 3.82
3/19/2017 8:00 PM 79 45 0.12 0 1.77
3/19/2017 9:00 PM 73 55 0 0 0
3/19/2017 10:00 PM 68 72 0 0 0
3/19/2017 11:00 PM 66 79 0 0 0.58
Data Summary 72 67 21.13 0.00 2.67